Hommalinn Airport


Codes: VYHL/HOX
Name: Hommalinn Airport
City: Hommalinn
Country: Myanmar [Burma]
Elevation: 534 ft.

Photos at Hommalinn Airport


   Photos courtesy of SpottingLog. You can add your own sightings and photos by signing up for a free trial today.



No photos found.

Weather at Hommalinn Airport


Time (UTC)DescriptionTempratureWindCloud coverageVisibilityPressureHumidity
15-Apr-2024 18:00Scattered Clouds28°C2 mph, NW34%10000m1008hPa33%
15-Apr-2024 21:00Few Clouds26°C2 mph, NW17%10000m1007hPa37%
16-Apr-2024 00:00Few Clouds25°C2 mph, NW17%10000m1008hPa40%
16-Apr-2024 03:00Broken Clouds36°C7 mph, SE52%10000m1008hPa20%
16-Apr-2024 06:00Broken Clouds41°C4 mph, E55%10000m1005hPa15%
16-Apr-2024 09:00Overcast Clouds40°C0 mph, N86%10000m1002hPa15%
16-Apr-2024 12:00Broken Clouds32°C4 mph, NW71%10000m1003hPa27%
16-Apr-2024 15:00Scattered Clouds29°C4 mph, NW50%10000m1005hPa34%
16-Apr-2024 18:00Broken Clouds29°C2 mph, NW65%10000m1005hPa36%
16-Apr-2024 21:00Overcast Clouds28°C2 mph, NW100%10000m1004hPa39%
17-Apr-2024 00:00Light Rain26°C2 mph, NW84%10000m1006hPa49%
17-Apr-2024 03:00Light Rain35°C4 mph, SE65%10000m1007hPa29%
17-Apr-2024 06:00Broken Clouds39°C4 mph, N51%10000m1004hPa21%
17-Apr-2024 09:00Broken Clouds39°C7 mph, SE72%10000m1001hPa21%
17-Apr-2024 12:00Broken Clouds31°C2 mph, NE80%10000m1002hPa39%
17-Apr-2024 15:00Light Rain24°C4 mph, NW100%10000m1008hPa74%
17-Apr-2024 18:00Broken Clouds23°C4 mph, N84%10000m1007hPa76%
17-Apr-2024 21:00Broken Clouds22°C2 mph, N62%10000m1007hPa71%
18-Apr-2024 00:00Scattered Clouds23°C2 mph, N41%10000m1008hPa66%
18-Apr-2024 03:00Clear Sky32°C4 mph, E0%10000m1008hPa41%
18-Apr-2024 06:00Clear Sky37°C4 mph, SE6%10000m1004hPa29%
18-Apr-2024 09:00Overcast Clouds34°C4 mph, NE91%10000m1001hPa35%
18-Apr-2024 12:00Broken Clouds32°C4 mph, NE72%10000m1000hPa35%
18-Apr-2024 15:00Overcast Clouds28°C4 mph, NW100%10000m1004hPa44%
18-Apr-2024 18:00Overcast Clouds27°C2 mph, NW97%10000m1004hPa44%
18-Apr-2024 21:00Few Clouds25°C2 mph, NW24%10000m1003hPa52%
19-Apr-2024 00:00Few Clouds25°C2 mph, NW15%10000m1005hPa56%
19-Apr-2024 03:00Clear Sky34°C4 mph, SE1%10000m1005hPa33%
19-Apr-2024 06:00Scattered Clouds37°C0 mph, N29%10000m1002hPa25%
19-Apr-2024 09:00Overcast Clouds40°C4 mph, SW86%10000m998hPa18%
19-Apr-2024 12:00Broken Clouds36°C7 mph, W63%10000m999hPa25%
19-Apr-2024 15:00Light Rain28°C4 mph, N9%10000m1003hPa48%
19-Apr-2024 18:00Light Rain24°C4 mph, N24%10000m1004hPa69%
19-Apr-2024 21:00Light Rain22°C4 mph, NW69%10000m1003hPa78%
20-Apr-2024 00:00Light Rain23°C2 mph, NW38%10000m1005hPa75%
20-Apr-2024 03:00Overcast Clouds32°C4 mph, SE92%10000m1005hPa41%
20-Apr-2024 06:00Broken Clouds36°C4 mph, SE66%10000m1001hPa30%
20-Apr-2024 09:00Broken Clouds41°C7 mph, SW70%10000m997hPa17%
20-Apr-2024 12:00Scattered Clouds35°C7 mph, SW40%10000m999hPa31%
20-Apr-2024 15:00Clear Sky27°C7 mph, N5%10000m1003hPa60%